createdAt,value
2023-10-25T00:00:10.168Z,2.88
2023-10-25T00:05:11.692Z,3.20
2023-10-25T00:10:13.132Z,2.63
2023-10-25T00:15:14.546Z,2.80
2023-10-25T00:20:15.944Z,2.90
2023-10-25T00:25:17.349Z,2.90
2023-10-25T00:30:18.830Z,3.08
2023-10-25T00:35:20.266Z,3.20
2023-10-25T00:40:21.698Z,3.38
2023-10-25T00:45:23.183Z,2.42
2023-10-25T00:50:24.559Z,2.80
2023-10-25T00:55:25.990Z,2.60
2023-10-25T01:00:28.129Z,3.13
2023-10-25T01:05:30.815Z,3.05
2023-10-25T01:10:32.304Z,3.70
2023-10-25T01:15:33.761Z,3.70
2023-10-25T01:20:35.192Z,3.40
2023-10-25T01:25:36.777Z,3.72
2023-10-25T01:30:38.428Z,3.63
2023-10-25T01:35:39.907Z,3.67
2023-10-25T01:40:41.305Z,3.33
2023-10-25T01:45:42.812Z,4.45
2023-10-25T01:50:44.304Z,3.53
2023-10-25T01:55:46.890Z,5.30
2023-10-25T02:00:48.402Z,6.32
2023-10-25T02:05:49.794Z,6.15
2023-10-25T02:10:51.169Z,6.38
2023-10-25T02:15:52.635Z,7.07
2023-10-25T02:20:54.008Z,7.65
2023-10-25T02:25:55.365Z,7.53
2023-10-25T02:30:56.766Z,8.80
2023-10-25T02:35:58.152Z,9.38
2023-10-25T02:40:59.525Z,8.95
2023-10-25T02:46:07.056Z,10.45
2023-10-25T02:51:08.621Z,10.07
2023-10-25T02:56:09.987Z,11.23
2023-10-25T03:01:21.901Z,10.57
2023-10-25T03:06:23.705Z,10.23
2023-10-25T03:11:25.172Z,10.93
2023-10-25T03:16:26.660Z,11.82
2023-10-25T03:21:28.248Z,11.45
2023-10-25T03:26:29.653Z,11.75
2023-10-25T03:31:31.135Z,13.05
2023-10-25T03:36:32.582Z,12.02
2023-10-25T03:41:34.096Z,11.90
2023-10-25T03:46:35.670Z,12.93
2023-10-25T03:51:37.147Z,15.63
2023-10-25T03:56:38.510Z,13.02
2023-10-25T04:01:40.302Z,12.90
2023-10-25T04:06:41.813Z,12.85
2023-10-25T04:11:43.201Z,13.77
2023-10-25T04:16:44.654Z,12.77
2023-10-25T04:21:46.148Z,13.25
2023-10-25T04:26:47.768Z,11.25
2023-10-25T04:31:49.222Z,11.75
2023-10-25T04:36:50.821Z,10.60
2023-10-25T04:41:52.256Z,10.98
2023-10-25T04:46:53.661Z,12.07
2023-10-25T04:51:55.370Z,12.77
2023-10-25T04:56:59.077Z,12.25
2023-10-25T05:02:00.517Z,12.95
2023-10-25T05:07:02.262Z,12.07
2023-10-25T05:12:08.038Z,12.68
2023-10-25T05:17:10.597Z,13.40
2023-10-25T05:22:14.652Z,11.93
2023-10-25T05:27:16.636Z,12.93
2023-10-25T05:32:20.582Z,11.25
2023-10-25T05:37:22.333Z,13.18
2023-10-25T05:42:28.290Z,11.75
2023-10-25T05:47:30.233Z,10.27
2023-10-25T05:52:31.990Z,10.48
2023-10-25T05:57:33.661Z,10.05
2023-10-25T06:02:35.454Z,9.52
2023-10-25T06:07:37.184Z,9.68
2023-10-25T06:12:41.828Z,10.02
2023-10-25T06:17:43.526Z,10.88
2023-10-25T06:22:44.917Z,10.75
2023-10-25T06:27:46.290Z,11.52
2023-10-25T06:32:47.745Z,11.45
2023-10-25T06:37:49.544Z,11.15
2023-10-25T06:42:53.758Z,11.82
2023-10-25T06:47:55.463Z,11.32
2023-10-25T06:52:57.302Z,11.75
2023-10-25T06:57:59.035Z,10.85
2023-10-25T07:03:04.127Z,12.32
2023-10-25T07:08:06.039Z,12.43
2023-10-25T07:13:07.564Z,12.35
2023-10-25T07:18:09.068Z,12.88
2023-10-25T07:23:10.515Z,12.32
2023-10-25T07:28:12.266Z,11.02
2023-10-25T07:33:14.294Z,10.70
2023-10-25T07:38:15.953Z,8.88
2023-10-25T07:43:17.425Z,6.82
2023-10-25T07:48:18.843Z,5.30
2023-10-25T07:53:20.228Z,6.13
2023-10-25T07:58:27.529Z,7.10
2023-10-25T08:03:30.458Z,4.93
2023-10-25T08:08:33.005Z,5.35
2023-10-25T08:13:36.053Z,4.93
2023-10-25T08:18:37.469Z,4.75
2023-10-25T08:23:39.389Z,4.53
2023-10-25T08:28:40.840Z,4.55
2023-10-25T08:33:42.349Z,5.05
2023-10-25T08:38:43.746Z,5.20
2023-10-25T08:43:45.224Z,6.25
2023-10-25T08:48:46.922Z,5.95
2023-10-25T08:53:51.302Z,6.50
2023-10-25T08:58:53.077Z,6.40
2023-10-25T09:03:54.649Z,6.45
2023-10-25T09:09:00.927Z,7.25
2023-10-25T09:14:02.345Z,7.47
2023-10-25T09:19:04.811Z,6.40
2023-10-25T09:24:10.301Z,5.97
2023-10-25T09:29:13.845Z,4.40
2023-10-25T09:34:16.260Z,4.30
2023-10-25T09:39:17.669Z,4.35
2023-10-25T09:44:23.553Z,4.13
2023-10-25T09:49:30.169Z,4.20
2023-10-25T09:54:34.130Z,3.90
2023-10-25T09:59:36.741Z,3.38
2023-10-25T10:04:50.941Z,3.40
2023-10-25T10:10:13.696Z,3.13
2023-10-25T10:15:15.719Z,2.70
2023-10-25T10:20:25.617Z,2.78
2023-10-25T10:25:46.592Z,2.78
2023-10-25T10:30:48.756Z,2.88
2023-10-25T10:35:50.355Z,2.50
2023-10-25T10:40:54.375Z,3.08
2023-10-25T10:45:55.833Z,3.22
2023-10-25T10:50:57.231Z,3.58
2023-10-25T10:55:58.721Z,3.13
2023-10-25T11:01:00.185Z,3.40
2023-10-25T11:06:04.559Z,3.50
2023-10-25T11:11:06.811Z,3.53
2023-10-25T11:16:10.062Z,4.03
2023-10-25T11:21:15.672Z,3.83
2023-10-25T11:26:17.472Z,3.92
2023-10-25T11:31:19.135Z,3.88
2023-10-25T11:36:20.552Z,4.10
2023-10-25T11:41:22.153Z,3.75
2023-10-25T11:46:25.173Z,4.20
2023-10-25T11:51:26.617Z,3.60
2023-10-25T11:56:28.337Z,3.70
2023-10-25T12:01:29.788Z,3.13
2023-10-25T12:06:31.398Z,3.53
2023-10-25T12:11:32.990Z,4.18
2023-10-25T12:16:34.378Z,3.13
2023-10-25T12:21:35.748Z,2.97
2023-10-25T12:26:37.138Z,3.25
2023-10-25T12:31:38.626Z,3.10
2023-10-25T12:36:40.153Z,3.35
2023-10-25T12:41:41.553Z,3.20
2023-10-25T12:46:44.834Z,2.88
2023-10-25T12:51:48.502Z,3.38
2023-10-25T12:56:50.006Z,3.85
2023-10-25T13:01:53.548Z,3.00
2023-10-25T13:06:55.489Z,3.80
2023-10-25T13:11:56.893Z,4.05
2023-10-25T13:17:12.649Z,4.13
2023-10-25T13:22:15.313Z,3.03
2023-10-25T13:27:16.816Z,2.55
2023-10-25T13:32:18.301Z,4.15
2023-10-25T13:37:19.827Z,3.55
2023-10-25T13:42:22.134Z,2.97
2023-10-25T13:47:23.619Z,3.75
2023-10-25T13:52:25.233Z,2.85
2023-10-25T13:57:26.643Z,2.30
2023-10-25T14:02:28.080Z,2.58
2023-10-25T14:07:29.527Z,2.08
2023-10-25T14:12:32.666Z,2.13
2023-10-25T14:17:34.112Z,3.00
2023-10-25T14:22:35.558Z,2.58
2023-10-25T14:27:38.565Z,2.20
2023-10-25T14:32:40.074Z,2.05
2023-10-25T14:37:42.465Z,1.58
2023-10-25T14:42:45.410Z,1.88
2023-10-25T14:47:47.021Z,1.75
2023-10-25T14:52:48.631Z,1.98
2023-10-25T14:57:50.019Z,1.98
2023-10-25T15:02:51.503Z,1.70
2023-10-25T15:07:54.225Z,2.22
2023-10-25T15:12:55.619Z,1.98
2023-10-25T15:17:57.190Z,1.33
2023-10-25T15:23:00.900Z,1.02
2023-10-25T15:28:04.594Z,2.47
2023-10-25T15:33:07.841Z,1.55
2023-10-25T15:38:09.219Z,1.70
2023-10-25T15:43:10.587Z,1.77
2023-10-25T15:48:12.057Z,1.35
2023-10-25T15:53:19.527Z,1.23
2023-10-25T15:58:21.308Z,1.25
2023-10-25T16:03:22.821Z,1.15
2023-10-25T16:08:24.363Z,0.70
2023-10-25T16:13:25.750Z,0.70
2023-10-25T16:18:27.237Z,0.80
2023-10-25T16:23:28.674Z,1.08
2023-10-25T16:28:30.065Z,1.00
2023-10-25T16:33:32.333Z,1.17
2023-10-25T16:38:34.268Z,1.27
2023-10-25T16:43:37.123Z,1.50
2023-10-25T16:48:42.113Z,2.05
2023-10-25T16:53:45.993Z,2.17
2023-10-25T16:58:47.700Z,1.88
2023-10-25T17:03:49.251Z,2.33
2023-10-25T17:08:50.874Z,2.72
2023-10-25T17:13:52.621Z,2.95
2023-10-25T17:18:54.261Z,2.95
2023-10-25T17:23:55.795Z,3.53
2023-10-25T17:28:57.763Z,3.35
2023-10-25T17:33:59.484Z,3.40
2023-10-25T17:39:01.179Z,2.78
2023-10-25T17:44:02.590Z,3.08
2023-10-25T17:49:04.069Z,3.03
2023-10-25T17:54:05.674Z,3.10
2023-10-25T17:59:07.111Z,2.33
2023-10-25T18:04:09.288Z,2.42
2023-10-25T18:09:10.827Z,2.95
2023-10-25T18:14:14.560Z,2.80
2023-10-25T18:19:18.359Z,2.97
2023-10-25T18:24:19.928Z,2.40
2023-10-25T18:29:21.724Z,2.55
2023-10-25T18:34:24.032Z,2.20
2023-10-25T18:39:28.275Z,2.17
2023-10-25T18:44:33.583Z,2.40
2023-10-25T18:49:35.578Z,2.92
2023-10-25T18:54:37.010Z,3.25
2023-10-25T18:59:38.827Z,3.38
2023-10-25T19:06:23.730Z,1.63
2023-10-25T19:10:29.743Z,1.35
2023-10-25T19:15:23.680Z,0.77
2023-10-25T19:20:27.051Z,0.90
2023-10-25T19:25:28.630Z,1.00
2023-10-25T19:30:31.162Z,1.23
2023-10-25T19:35:37.028Z,1.45
2023-10-25T19:40:38.743Z,1.88
2023-10-25T19:45:40.635Z,2.55
2023-10-25T19:50:42.183Z,2.72
2023-10-25T19:55:44.055Z,3.13
2023-10-25T20:00:45.606Z,4.05
2023-10-25T20:05:47.025Z,5.60
2023-10-25T20:10:48.975Z,5.10
2023-10-25T20:15:50.348Z,4.35
2023-10-25T20:20:51.838Z,4.15
2023-10-25T20:25:54.749Z,3.55
2023-10-25T20:30:56.174Z,5.28
2023-10-25T20:36:00.105Z,3.88
2023-10-25T20:41:08.649Z,4.10
2023-10-25T20:46:10.293Z,3.70
2023-10-25T20:51:11.768Z,3.60
2023-10-25T20:56:13.154Z,4.05
2023-10-25T21:01:14.594Z,3.80
2023-10-25T21:06:16.112Z,3.33
2023-10-25T21:11:17.569Z,2.75
2023-10-25T21:16:19.049Z,2.55
2023-10-25T21:21:20.562Z,2.00
2023-10-25T21:26:22.089Z,1.90
2023-10-25T21:31:23.874Z,2.30
2023-10-25T21:36:26.743Z,1.88
2023-10-25T21:41:28.211Z,1.55
2023-10-25T21:46:29.652Z,1.48
2023-10-25T21:51:31.114Z,1.52
2023-10-25T21:56:32.516Z,1.00
2023-10-25T22:01:33.933Z,0.70
2023-10-25T22:06:36.447Z,0.30
2023-10-25T22:11:38.596Z,0.30
2023-10-25T22:16:40.634Z,0.20
2023-10-25T22:21:43.011Z,0.13
2023-10-25T22:26:44.500Z,0.20
2023-10-25T22:31:46.311Z,0.10
2023-10-25T22:36:52.091Z,0.10
2023-10-25T22:41:55.412Z,0.10
2023-10-25T22:46:57.212Z,0.20
2023-10-25T22:51:58.697Z,0.10
2023-10-25T22:57:01.494Z,0.30
2023-10-25T23:02:04.444Z,0.10
2023-10-25T23:07:05.903Z,0.10
2023-10-25T23:12:07.776Z,0.10
2023-10-25T23:17:09.189Z,0.10
2023-10-25T23:22:10.722Z,0.10
2023-10-25T23:27:12.158Z,0.10
2023-10-25T23:32:13.623Z,0.20
2023-10-25T23:37:15.221Z,0.10
2023-10-25T23:42:16.631Z,0.10
2023-10-25T23:47:19.351Z,0.10
2023-10-25T23:52:20.764Z,0.40
2023-10-25T23:57:24.553Z,0.10
